Fritz Creek, Alaska
Current Conditions -  °F | °C
As of 6:53 AM on Saturday 20 Dec 2014 (Local Time) from PAHO Reporting Station
Overcast Overcast  
Wind Chill: 30°   Ceiling: 7000
Heat Index: 39°   Visibility: 10mi
Dew Point: 29°   Wind: 17mph
Humidity: 67%   Direction: 80°E
Pressure: 28.86"   Gusts: 22mph
Location:  59.7153°N, 150.773°W
Report Text: PAHO 201553Z AUTO 08015G19KT 10SM OVC070 04/M02 A2886 RMK AO2 SLP774 T00391017 TSNO
Loading
Personal Weather Stations






























Interactive Weather Map New forecast layout! Learn more

10-Day Weather Forecast

Advertisements
Track Severe Weather on mobile